sensor_id;sensor_type;location;lat;lon;timestamp;pressure;altitude;pressure_sealevel;temperature;humidity
22653;BME280;11493;43.344;26.226;2023-05-03T00:01:43;99890.09;;;9.04;81.44
22653;BME280;11493;43.344;26.226;2023-05-03T00:04:11;99898.78;;;9.11;82.16
22653;BME280;11493;43.344;26.226;2023-05-03T00:06:44;99886.22;;;9.05;81.63
22653;BME280;11493;43.344;26.226;2023-05-03T00:09:11;99885.41;;;9.05;82.40
22653;BME280;11493;43.344;26.226;2023-05-03T00:11:38;99903.75;;;9.09;82.98
22653;BME280;11493;43.344;26.226;2023-05-03T00:14:05;99890.84;;;9.10;81.27
22653;BME280;11493;43.344;26.226;2023-05-03T00:16:32;99888.69;;;9.07;80.64
22653;BME280;11493;43.344;26.226;2023-05-03T00:18:59;99896.72;;;8.98;81.49
22653;BME280;11493;43.344;26.226;2023-05-03T00:21:25;99895.81;;;8.84;82.59
22653;BME280;11493;43.344;26.226;2023-05-03T00:23:52;99890.47;;;8.69;82.29
22653;BME280;11493;43.344;26.226;2023-05-03T00:26:20;99893.28;;;8.59;82.98
22653;BME280;11493;43.344;26.226;2023-05-03T00:28:47;99883.50;;;8.47;83.45
22653;BME280;11493;43.344;26.226;2023-05-03T00:31:14;99881.63;;;8.43;84.68
22653;BME280;11493;43.344;26.226;2023-05-03T00:33:41;99883.59;;;8.32;86.54
22653;BME280;11493;43.344;26.226;2023-05-03T00:36:13;99880.03;;;8.32;87.72
22653;BME280;11493;43.344;26.226;2023-05-03T00:38:41;99877.59;;;8.35;88.26
22653;BME280;11493;43.344;26.226;2023-05-03T00:41:09;99869.84;;;8.42;86.61
22653;BME280;11493;43.344;26.226;2023-05-03T00:43:36;99869.75;;;8.52;85.74
22653;BME280;11493;43.344;26.226;2023-05-03T00:46:08;99867.59;;;8.49;86.86
22653;BME280;11493;43.344;26.226;2023-05-03T00:48:49;99877.41;;;8.55;87.63
22653;BME280;11493;43.344;26.226;2023-05-03T00:51:18;99882.63;;;8.57;88.09
22653;BME280;11493;43.344;26.226;2023-05-03T00:53:46;99868.94;;;8.52;87.09
22653;BME280;11493;43.344;26.226;2023-05-03T00:56:17;99785.66;;;8.14;87.44
22653;BME280;11493;43.344;26.226;2023-05-03T00:58:52;99862.41;;;8.77;86.52
22653;BME280;11493;43.344;26.226;2023-05-03T01:01:20;99862.94;;;8.79;87.11
22653;BME280;11493;43.344;26.226;2023-05-03T01:03:47;99857.69;;;8.82;87.58
22653;BME280;11493;43.344;26.226;2023-05-03T01:09:11;99840.22;;;8.73;87.87
22653;BME280;11493;43.344;26.226;2023-05-03T01:14:44;99856.28;;;8.85;86.24
22653;BME280;11493;43.344;26.226;2023-05-03T01:17:13;99843.72;;;8.79;84.90
22653;BME280;11493;43.344;26.226;2023-05-03T01:19:54;99842.53;;;8.61;86.75
22653;BME280;11493;43.344;26.226;2023-05-03T01:25:09;99847.13;;;8.37;87.30
22653;BME280;11493;43.344;26.226;2023-05-03T01:27:38;99840.06;;;8.25;87.71
22653;BME280;11493;43.344;26.226;2023-05-03T01:30:07;99832.63;;;8.31;87.34
22653;BME280;11493;43.344;26.226;2023-05-03T01:37:55;99845.56;;;8.25;87.24
22653;BME280;11493;43.344;26.226;2023-05-03T01:40:24;99844.44;;;8.27;86.28
22653;BME280;11493;43.344;26.226;2023-05-03T01:42:53;99843.22;;;8.14;86.18
22653;BME280;11493;43.344;26.226;2023-05-03T01:45:21;99834.78;;;8.05;86.62
22653;BME280;11493;43.344;26.226;2023-05-03T01:47:48;99804.91;;;8.04;84.97
22653;BME280;11493;43.344;26.226;2023-05-03T01:50:15;99806.75;;;8.13;85.74
22653;BME280;11493;43.344;26.226;2023-05-03T01:52:42;99823.44;;;8.17;86.93
22653;BME280;11493;43.344;26.226;2023-05-03T01:55:10;99814.44;;;8.11;89.04
22653;BME280;11493;43.344;26.226;2023-05-03T01:57:37;99825.59;;;8.20;89.64
22653;BME280;11493;43.344;26.226;2023-05-03T02:00:05;99817.31;;;8.25;89.76
22653;BME280;11493;43.344;26.226;2023-05-03T02:02:38;99814.53;;;8.30;90.35
22653;BME280;11493;43.344;26.226;2023-05-03T02:05:05;99824.28;;;8.46;89.37
22653;BME280;11493;43.344;26.226;2023-05-03T02:07:32;99811.16;;;8.43;89.67
22653;BME280;11493;43.344;26.226;2023-05-03T02:09:59;99809.34;;;8.29;87.70
22653;BME280;11493;43.344;26.226;2023-05-03T02:12:27;99803.66;;;8.20;87.02
22653;BME280;11493;43.344;26.226;2023-05-03T02:14:54;99805.41;;;8.11;86.37
22653;BME280;11493;43.344;26.226;2023-05-03T02:17:21;99802.50;;;7.97;87.57
22653;BME280;11493;43.344;26.226;2023-05-03T02:19:52;99813.25;;;7.88;89.33
22653;BME280;11493;43.344;26.226;2023-05-03T02:22:19;99808.41;;;7.75;89.73
22653;BME280;11493;43.344;26.226;2023-05-03T02:24:46;99802.06;;;7.80;90.39
22653;BME280;11493;43.344;26.226;2023-05-03T02:27:13;99788.69;;;7.73;89.77
22653;BME280;11493;43.344;26.226;2023-05-03T02:29:42;99786.75;;;7.79;91.09
22653;BME280;11493;43.344;26.226;2023-05-03T02:32:11;99802.28;;;7.88;91.09
22653;BME280;11493;43.344;26.226;2023-05-03T02:34:38;99794.31;;;7.92;91.54
22653;BME280;11493;43.344;26.226;2023-05-03T02:37:07;99785.81;;;7.94;91.91
22653;BME280;11493;43.344;26.226;2023-05-03T02:39:34;99781.34;;;8.03;91.46
22653;BME280;11493;43.344;26.226;2023-05-03T02:42:02;99783.81;;;8.04;91.75
22653;BME280;11493;43.344;26.226;2023-05-03T02:44:29;99761.94;;;7.99;91.47
22653;BME280;11493;43.344;26.226;2023-05-03T02:46:59;99771.44;;;8.07;91.45
22653;BME280;11493;43.344;26.226;2023-05-03T02:49:26;99765.66;;;8.13;90.68
22653;BME280;11493;43.344;26.226;2023-05-03T02:51:52;99780.91;;;8.19;89.88
22653;BME280;11493;43.344;26.226;2023-05-03T02:54:19;99780.63;;;8.21;89.82
22653;BME280;11493;43.344;26.226;2023-05-03T02:56:47;99823.63;;;8.25;89.49
22653;BME280;11493;43.344;26.226;2023-05-03T02:59:14;99836.56;;;8.20;90.43
22653;BME280;11493;43.344;26.226;2023-05-03T03:01:41;99827.22;;;8.21;90.72
22653;BME280;11493;43.344;26.226;2023-05-03T03:04:09;99831.28;;;8.29;91.68
22653;BME280;11493;43.344;26.226;2023-05-03T03:06:36;99832.41;;;8.22;92.14
22653;BME280;11493;43.344;26.226;2023-05-03T03:09:03;99834.69;;;8.15;93.04
22653;BME280;11493;43.344;26.226;2023-05-03T03:11:33;99841.81;;;8.16;93.59
22653;BME280;11493;43.344;26.226;2023-05-03T03:14:00;99841.03;;;8.11;93.80
22653;BME280;11493;43.344;26.226;2023-05-03T03:16:27;99832.31;;;8.04;94.54
22653;BME280;11493;43.344;26.226;2023-05-03T03:18:54;99832.41;;;7.94;95.05
22653;BME280;11493;43.344;26.226;2023-05-03T03:21:22;99845.56;;;7.91;96.97
22653;BME280;11493;43.344;26.226;2023-05-03T03:23:49;99832.47;;;7.83;97.83
22653;BME280;11493;43.344;26.226;2023-05-03T03:26:17;99838.97;;;7.93;98.99
22653;BME280;11493;43.344;26.226;2023-05-03T03:28:45;99822.00;;;7.90;98.22
22653;BME280;11493;43.344;26.226;2023-05-03T03:31:12;99831.00;;;7.96;99.27
22653;BME280;11493;43.344;26.226;2023-05-03T03:33:41;99826.84;;;8.04;99.31
22653;BME280;11493;43.344;26.226;2023-05-03T03:36:13;99830.50;;;8.23;98.04
22653;BME280;11493;43.344;26.226;2023-05-03T03:38:42;99839.44;;;8.39;97.30
22653;BME280;11493;43.344;26.226;2023-05-03T03:41:10;99821.06;;;8.39;98.11
22653;BME280;11493;43.344;26.226;2023-05-03T03:43:37;99834.44;;;8.46;98.30
22653;BME280;11493;43.344;26.226;2023-05-03T03:46:09;99833.56;;;8.50;99.05
22653;BME280;11493;43.344;26.226;2023-05-03T03:48:37;99837.38;;;8.54;99.45
22653;BME280;11493;43.344;26.226;2023-05-03T03:51:04;99838.16;;;8.60;99.95
22653;BME280;11493;43.344;26.226;2023-05-03T03:53:37;99823.50;;;8.70;98.91
22653;BME280;11493;43.344;26.226;2023-05-03T03:56:05;99821.56;;;8.94;98.53
22653;BME280;11493;43.344;26.226;2023-05-03T03:58:32;99832.38;;;9.09;98.53
22653;BME280;11493;43.344;26.226;2023-05-03T04:01:01;99830.63;;;9.18;98.82
22653;BME280;11493;43.344;26.226;2023-05-03T04:03:29;99823.97;;;9.25;99.17
22653;BME280;11493;43.344;26.226;2023-05-03T04:05:57;99835.34;;;9.37;100.00
22653;BME280;11493;43.344;26.226;2023-05-03T04:08:25;99827.44;;;9.54;99.23
22653;BME280;11493;43.344;26.226;2023-05-03T04:10:52;99821.94;;;9.54;98.74
22653;BME280;11493;43.344;26.226;2023-05-03T04:13:19;99827.88;;;9.61;99.25
22653;BME280;11493;43.344;26.226;2023-05-03T04:15:53;99831.03;;;9.68;99.13
22653;BME280;11493;43.344;26.226;2023-05-03T04:18:20;99838.09;;;9.74;99.42
22653;BME280;11493;43.344;26.226;2023-05-03T04:20:50;99822.22;;;9.71;99.47
22653;BME280;11493;43.344;26.226;2023-05-03T04:23:17;99848.59;;;9.91;99.79
22653;BME280;11493;43.344;26.226;2023-05-03T04:25:45;99831.78;;;9.93;99.79
22653;BME280;11493;43.344;26.226;2023-05-03T04:28:13;99834.97;;;10.00;100.00
22653;BME280;11493;43.344;26.226;2023-05-03T04:30:44;99843.16;;;10.05;100.00
22653;BME280;11493;43.344;26.226;2023-05-03T04:33:16;99838.47;;;10.05;100.00
22653;BME280;11493;43.344;26.226;2023-05-03T04:35:48;99837.28;;;10.11;100.00
22653;BME280;11493;43.344;26.226;2023-05-03T04:38:16;99844.19;;;10.28;100.00
22653;BME280;11493;43.344;26.226;2023-05-03T04:40:44;99822.41;;;10.31;100.00
22653;BME280;11493;43.344;26.226;2023-05-03T04:43:12;99821.44;;;10.54;98.91
22653;BME280;11493;43.344;26.226;2023-05-03T04:45:43;99835.72;;;10.70;98.80
22653;BME280;11493;43.344;26.226;2023-05-03T04:48:15;99828.81;;;10.73;98.62
22653;BME280;11493;43.344;26.226;2023-05-03T04:50:44;99840.97;;;10.85;98.99
22653;BME280;11493;43.344;26.226;2023-05-03T04:53:13;99836.28;;;11.00;98.28
22653;BME280;11493;43.344;26.226;2023-05-03T04:55:43;99840.78;;;11.09;97.86
22653;BME280;11493;43.344;26.226;2023-05-03T04:58:10;99847.88;;;11.24;97.25
22653;BME280;11493;43.344;26.226;2023-05-03T05:00:40;99824.22;;;11.23;95.99
22653;BME280;11493;43.344;26.226;2023-05-03T05:03:13;99829.41;;;11.52;95.94
22653;BME280;11493;43.344;26.226;2023-05-03T05:05:41;99839.28;;;11.67;95.47
22653;BME280;11493;43.344;26.226;2023-05-03T05:08:10;99833.84;;;11.75;95.03
22653;BME280;11493;43.344;26.226;2023-05-03T05:10:43;99846.97;;;11.92;94.65
22653;BME280;11493;43.344;26.226;2023-05-03T05:13:15;99844.50;;;12.04;93.96
22653;BME280;11493;43.344;26.226;2023-05-03T05:15:41;99846.88;;;12.20;93.07
22653;BME280;11493;43.344;26.226;2023-05-03T05:18:11;99845.00;;;12.29;91.06
22653;BME280;11493;43.344;26.226;2023-05-03T05:20:39;99845.25;;;12.41;88.75
22653;BME280;11493;43.344;26.226;2023-05-03T05:23:06;99852.28;;;12.78;87.97
22653;BME280;11493;43.344;26.226;2023-05-03T05:25:34;99854.78;;;13.19;84.79
22653;BME280;11493;43.344;26.226;2023-05-03T05:28:02;99858.13;;;13.47;83.50
22653;BME280;11493;43.344;26.226;2023-05-03T05:30:29;99847.25;;;13.59;82.85
22653;BME280;11493;43.344;26.226;2023-05-03T05:32:57;99862.22;;;13.67;81.44
22653;BME280;11493;43.344;26.226;2023-05-03T05:35:24;99863.91;;;13.85;80.49
22653;BME280;11493;43.344;26.226;2023-05-03T05:37:51;99879.38;;;13.95;81.17
22653;BME280;11493;43.344;26.226;2023-05-03T05:40:18;99869.75;;;13.92;81.09
22653;BME280;11493;43.344;26.226;2023-05-03T05:42:50;99877.09;;;13.97;80.48
22653;BME280;11493;43.344;26.226;2023-05-03T05:45:20;99878.06;;;14.01;81.42
22653;BME280;11493;43.344;26.226;2023-05-03T05:47:49;99867.66;;;13.98;81.91
22653;BME280;11493;43.344;26.226;2023-05-03T05:50:17;99879.22;;;14.08;81.82
22653;BME280;11493;43.344;26.226;2023-05-03T05:52:51;99884.56;;;14.22;81.81
22653;BME280;11493;43.344;26.226;2023-05-03T05:55:19;99869.91;;;14.30;82.02
22653;BME280;11493;43.344;26.226;2023-05-03T05:57:48;99878.25;;;14.48;80.03
22653;BME280;11493;43.344;26.226;2023-05-03T06:00:18;99869.28;;;14.51;78.71
22653;BME280;11493;43.344;26.226;2023-05-03T06:02:46;99874.16;;;14.71;76.55
22653;BME280;11493;43.344;26.226;2023-05-03T06:05:19;99879.13;;;14.95;74.90
22653;BME280;11493;43.344;26.226;2023-05-03T06:07:47;99874.03;;;15.05;73.78
22653;BME280;11493;43.344;26.226;2023-05-03T06:10:14;99872.53;;;15.17;72.21
22653;BME280;11493;43.344;26.226;2023-05-03T06:12:45;99869.53;;;15.30;71.38
22653;BME280;11493;43.344;26.226;2023-05-03T06:15:17;99875.53;;;15.41;71.67
22653;BME280;11493;43.344;26.226;2023-05-03T06:17:44;99872.09;;;15.44;71.08
22653;BME280;11493;43.344;26.226;2023-05-03T06:20:12;99874.84;;;15.44;71.59
22653;BME280;11493;43.344;26.226;2023-05-03T06:22:40;99889.00;;;15.60;70.95
22653;BME280;11493;43.344;26.226;2023-05-03T06:25:09;99891.13;;;15.54;70.87
22653;BME280;11493;43.344;26.226;2023-05-03T06:27:44;99910.88;;;15.53;68.84
22653;BME280;11493;43.344;26.226;2023-05-03T06:30:11;99917.34;;;15.65;68.24
22653;BME280;11493;43.344;26.226;2023-05-03T06:32:40;99921.69;;;15.75;67.19
22653;BME280;11493;43.344;26.226;2023-05-03T06:35:08;99936.00;;;15.86;67.36
22653;BME280;11493;43.344;26.226;2023-05-03T06:37:37;99920.59;;;15.97;67.51
22653;BME280;11493;43.344;26.226;2023-05-03T06:40:06;99932.34;;;16.23;64.99
22653;BME280;11493;43.344;26.226;2023-05-03T06:42:35;99925.91;;;16.31;65.04
22653;BME280;11493;43.344;26.226;2023-05-03T06:45:08;99931.69;;;16.38;64.91
22653;BME280;11493;43.344;26.226;2023-05-03T06:47:36;99939.56;;;16.36;65.19
22653;BME280;11493;43.344;26.226;2023-05-03T06:50:06;99924.31;;;16.42;65.22
22653;BME280;11493;43.344;26.226;2023-05-03T06:52:33;99934.63;;;16.42;65.64
22653;BME280;11493;43.344;26.226;2023-05-03T06:55:00;99926.13;;;16.59;64.85
22653;BME280;11493;43.344;26.226;2023-05-03T06:57:27;99937.91;;;16.65;64.83
22653;BME280;11493;43.344;26.226;2023-05-03T06:59:54;99925.63;;;16.66;64.89
22653;BME280;11493;43.344;26.226;2023-05-03T07:02:21;99923.03;;;16.82;64.57
22653;BME280;11493;43.344;26.226;2023-05-03T07:04:48;99930.34;;;16.86;64.96
22653;BME280;11493;43.344;26.226;2023-05-03T07:07:16;99920.41;;;16.64;65.12
22653;BME280;11493;43.344;26.226;2023-05-03T07:09:43;99943.28;;;16.82;65.15
22653;BME280;11493;43.344;26.226;2023-05-03T07:12:10;99943.09;;;16.87;65.01
22653;BME280;11493;43.344;26.226;2023-05-03T07:14:38;99949.16;;;17.01;63.66
22653;BME280;11493;43.344;26.226;2023-05-03T07:17:06;99943.97;;;17.24;62.86
22653;BME280;11493;43.344;26.226;2023-05-03T07:19:33;99944.56;;;17.30;63.68
22653;BME280;11493;43.344;26.226;2023-05-03T07:22:00;99941.94;;;17.46;61.54
22653;BME280;11493;43.344;26.226;2023-05-03T07:24:29;99942.47;;;17.27;60.69
22653;BME280;11493;43.344;26.226;2023-05-03T07:26:56;99943.19;;;17.36;58.33
22653;BME280;11493;43.344;26.226;2023-05-03T07:29:24;99929.03;;;17.29;57.67
22653;BME280;11493;43.344;26.226;2023-05-03T07:31:52;99940.75;;;17.34;56.78
22653;BME280;11493;43.344;26.226;2023-05-03T07:34:20;99928.56;;;17.27;56.58
22653;BME280;11493;43.344;26.226;2023-05-03T07:36:47;99938.06;;;17.26;55.81
22653;BME280;11493;43.344;26.226;2023-05-03T07:39:14;99941.53;;;17.23;57.34
22653;BME280;11493;43.344;26.226;2023-05-03T07:41:41;99948.03;;;17.27;56.85
22653;BME280;11493;43.344;26.226;2023-05-03T07:44:08;99949.56;;;17.36;57.40
22653;BME280;11493;43.344;26.226;2023-05-03T07:46:35;99948.75;;;17.36;55.02
22653;BME280;11493;43.344;26.226;2023-05-03T07:49:03;99948.63;;;17.32;56.37
22653;BME280;11493;43.344;26.226;2023-05-03T07:51:37;99948.38;;;17.25;55.89
22653;BME280;11493;43.344;26.226;2023-05-03T07:54:04;99947.63;;;17.49;55.54
22653;BME280;11493;43.344;26.226;2023-05-03T07:56:32;99950.22;;;17.79;54.46
22653;BME280;11493;43.344;26.226;2023-05-03T07:58:59;99950.44;;;17.86;53.57
22653;BME280;11493;43.344;26.226;2023-05-03T08:01:29;99959.59;;;17.98;53.50
22653;BME280;11493;43.344;26.226;2023-05-03T08:03:56;99944.16;;;18.13;53.04
22653;BME280;11493;43.344;26.226;2023-05-03T08:06:24;99944.03;;;18.22;52.15
22653;BME280;11493;43.344;26.226;2023-05-03T08:08:52;99948.31;;;18.31;51.11
22653;BME280;11493;43.344;26.226;2023-05-03T08:11:19;99960.16;;;18.16;51.43
22653;BME280;11493;43.344;26.226;2023-05-03T08:13:46;99947.03;;;18.29;50.19
22653;BME280;11493;43.344;26.226;2023-05-03T08:16:13;99944.03;;;18.22;50.49
22653;BME280;11493;43.344;26.226;2023-05-03T08:18:40;99952.91;;;18.52;49.67
22653;BME280;11493;43.344;26.226;2023-05-03T08:21:07;99952.41;;;18.62;50.83
22653;BME280;11493;43.344;26.226;2023-05-03T08:23:38;99948.41;;;18.75;49.00
22653;BME280;11493;43.344;26.226;2023-05-03T08:26:05;99951.75;;;18.53;48.50
22653;BME280;11493;43.344;26.226;2023-05-03T08:28:35;99951.03;;;18.56;49.58
22653;BME280;11493;43.344;26.226;2023-05-03T08:31:01;99951.41;;;18.82;49.59
22653;BME280;11493;43.344;26.226;2023-05-03T08:33:32;99945.63;;;18.75;48.46
22653;BME280;11493;43.344;26.226;2023-05-03T08:35:59;99939.63;;;18.61;47.75
22653;BME280;11493;43.344;26.226;2023-05-03T08:38:27;99949.31;;;18.51;48.84
22653;BME280;11493;43.344;26.226;2023-05-03T08:40:57;99941.72;;;18.64;49.67
22653;BME280;11493;43.344;26.226;2023-05-03T08:43:27;99935.84;;;18.81;49.11
22653;BME280;11493;43.344;26.226;2023-05-03T08:45:54;99931.22;;;18.73;47.62
22653;BME280;11493;43.344;26.226;2023-05-03T08:48:21;99931.78;;;18.79;46.45
22653;BME280;11493;43.344;26.226;2023-05-03T08:50:50;99930.38;;;18.57;46.61
22653;BME280;11493;43.344;26.226;2023-05-03T08:53:17;99935.50;;;18.43;47.79
22653;BME280;11493;43.344;26.226;2023-05-03T08:55:44;99930.78;;;18.59;47.87
22653;BME280;11493;43.344;26.226;2023-05-03T08:58:11;99932.53;;;18.63;48.64
22653;BME280;11493;43.344;26.226;2023-05-03T09:00:39;99926.72;;;18.68;51.05
22653;BME280;11493;43.344;26.226;2023-05-03T09:03:11;99914.25;;;18.78;51.46
22653;BME280;11493;43.344;26.226;2023-05-03T09:05:39;99896.31;;;18.63;53.02
22653;BME280;11493;43.344;26.226;2023-05-03T09:08:11;99917.28;;;18.73;50.26
22653;BME280;11493;43.344;26.226;2023-05-03T09:10:41;99928.84;;;18.87;50.81
22653;BME280;11493;43.344;26.226;2023-05-03T09:13:09;99935.19;;;18.72;51.47
22653;BME280;11493;43.344;26.226;2023-05-03T09:15:36;99939.56;;;18.85;51.61
22653;BME280;11493;43.344;26.226;2023-05-03T09:18:15;99926.97;;;18.91;51.35
22653;BME280;11493;43.344;26.226;2023-05-03T09:20:45;99935.75;;;19.06;51.00
22653;BME280;11493;43.344;26.226;2023-05-03T09:23:30;99929.84;;;19.23;51.19
22653;BME280;11493;43.344;26.226;2023-05-03T09:25:58;99933.59;;;19.46;50.54
22653;BME280;11493;43.344;26.226;2023-05-03T09:28:25;99925.22;;;19.46;51.43
22653;BME280;11493;43.344;26.226;2023-05-03T09:31:06;99921.13;;;19.56;51.59
22653;BME280;11493;43.344;26.226;2023-05-03T09:33:33;99905.97;;;19.73;51.22
22653;BME280;11493;43.344;26.226;2023-05-03T09:36:02;99911.56;;;19.88;49.62
22653;BME280;11493;43.344;26.226;2023-05-03T09:38:34;99907.06;;;19.84;48.71
22653;BME280;11493;43.344;26.226;2023-05-03T09:41:04;99904.31;;;20.03;49.10
22653;BME280;11493;43.344;26.226;2023-05-03T09:43:32;99906.22;;;19.99;50.85
22653;BME280;11493;43.344;26.226;2023-05-03T09:46:10;99903.34;;;20.15;50.54
22653;BME280;11493;43.344;26.226;2023-05-03T09:48:38;99904.59;;;20.17;49.59
22653;BME280;11493;43.344;26.226;2023-05-03T09:51:06;99891.97;;;20.04;48.73
22653;BME280;11493;43.344;26.226;2023-05-03T09:53:35;99893.72;;;19.77;49.24
22653;BME280;11493;43.344;26.226;2023-05-03T09:56:04;99876.94;;;19.93;47.44
22653;BME280;11493;43.344;26.226;2023-05-03T09:58:32;99874.09;;;20.09;47.09
22653;BME280;11493;43.344;26.226;2023-05-03T10:01:01;99878.72;;;20.20;45.62
22653;BME280;11493;43.344;26.226;2023-05-03T10:06:02;99847.84;;;20.32;43.78
22653;BME280;11493;43.344;26.226;2023-05-03T10:08:41;99849.09;;;20.35;43.31
22653;BME280;11493;43.344;26.226;2023-05-03T10:11:11;99858.06;;;20.25;44.22
22653;BME280;11493;43.344;26.226;2023-05-03T10:13:39;99846.38;;;20.19;43.86
22653;BME280;11493;43.344;26.226;2023-05-03T10:16:12;99845.94;;;20.37;42.97
22653;BME280;11493;43.344;26.226;2023-05-03T10:18:46;99837.84;;;20.12;43.13
22653;BME280;11493;43.344;26.226;2023-05-03T10:21:31;99834.63;;;20.29;45.20
22653;BME280;11493;43.344;26.226;2023-05-03T10:24:12;99849.69;;;20.25;45.80
22653;BME280;11493;43.344;26.226;2023-05-03T10:26:45;99840.97;;;20.46;47.04
22653;BME280;11493;43.344;26.226;2023-05-03T10:32:03;99847.31;;;21.08;45.40
22653;BME280;11493;43.344;26.226;2023-05-03T10:34:35;99843.34;;;21.09;45.17
22653;BME280;11493;43.344;26.226;2023-05-03T10:37:09;99843.09;;;21.17;45.40
22653;BME280;11493;43.344;26.226;2023-05-03T10:39:43;99844.34;;;21.20;46.12
22653;BME280;11493;43.344;26.226;2023-05-03T10:42:11;99831.97;;;21.21;45.76
22653;BME280;11493;43.344;26.226;2023-05-03T10:47:14;99836.47;;;21.48;46.60
22653;BME280;11493;43.344;26.226;2023-05-03T10:49:41;99830.69;;;21.64;45.44
22653;BME280;11493;43.344;26.226;2023-05-03T10:52:47;99832.50;;;21.79;46.55
22653;BME280;11493;43.344;26.226;2023-05-03T10:55:19;99823.28;;;21.79;46.54
22653;BME280;11493;43.344;26.226;2023-05-03T10:57:47;99819.34;;;21.83;46.45
22653;BME280;11493;43.344;26.226;2023-05-03T11:00:36;99822.16;;;21.57;46.88
22653;BME280;11493;43.344;26.226;2023-05-03T11:03:12;99818.72;;;21.18;47.33
22653;BME280;11493;43.344;26.226;2023-05-03T11:05:49;99811.81;;;21.12;46.46
22653;BME280;11493;43.344;26.226;2023-05-03T11:08:19;99818.41;;;21.00;45.92
22653;BME280;11493;43.344;26.226;2023-05-03T11:10:56;99807.53;;;20.95;46.31
22653;BME280;11493;43.344;26.226;2023-05-03T11:13:23;99795.41;;;21.10;46.56
22653;BME280;11493;43.344;26.226;2023-05-03T11:15:53;99804.06;;;21.24;47.45
22653;BME280;11493;43.344;26.226;2023-05-03T11:18:23;99799.72;;;21.27;45.83
22653;BME280;11493;43.344;26.226;2023-05-03T11:20:50;99783.78;;;21.31;45.33
22653;BME280;11493;43.344;26.226;2023-05-03T11:23:25;99785.94;;;21.41;45.44
22653;BME280;11493;43.344;26.226;2023-05-03T11:25:54;99783.53;;;21.40;45.74
22653;BME280;11493;43.344;26.226;2023-05-03T11:28:24;99776.66;;;21.63;44.99
22653;BME280;11493;43.344;26.226;2023-05-03T11:30:51;99780.63;;;21.62;45.67
22653;BME280;11493;43.344;26.226;2023-05-03T11:33:18;99776.97;;;21.85;43.49
22653;BME280;11493;43.344;26.226;2023-05-03T11:35:46;99777.91;;;21.96;41.71
22653;BME280;11493;43.344;26.226;2023-05-03T11:38:13;99775.53;;;21.98;42.76
22653;BME280;11493;43.344;26.226;2023-05-03T11:40:40;99782.63;;;22.18;42.16
22653;BME280;11493;43.344;26.226;2023-05-03T11:43:07;99776.72;;;22.27;42.74
22653;BME280;11493;43.344;26.226;2023-05-03T11:45:43;99785.72;;;22.10;42.57
22653;BME280;11493;43.344;26.226;2023-05-03T11:48:12;99780.47;;;22.42;39.78
22653;BME280;11493;43.344;26.226;2023-05-03T11:53:14;99783.31;;;22.79;38.64
22653;BME280;11493;43.344;26.226;2023-05-03T11:55:43;99780.94;;;22.81;38.96
22653;BME280;11493;43.344;26.226;2023-05-03T11:58:16;99796.56;;;23.30;38.43
22653;BME280;11493;43.344;26.226;2023-05-03T12:00:45;99781.66;;;23.22;37.91
22653;BME280;11493;43.344;26.226;2023-05-03T12:03:22;99790.88;;;22.78;37.44
22653;BME280;11493;43.344;26.226;2023-05-03T12:05:57;99785.16;;;23.08;37.33
22653;BME280;11493;43.344;26.226;2023-05-03T12:08:31;99779.91;;;23.00;37.75
22653;BME280;11493;43.344;26.226;2023-05-03T12:11:03;99775.97;;;23.11;37.36
22653;BME280;11493;43.344;26.226;2023-05-03T12:13:34;99781.59;;;23.15;36.32
22653;BME280;11493;43.344;26.226;2023-05-03T12:16:07;99772.56;;;22.88;36.67
22653;BME280;11493;43.344;26.226;2023-05-03T12:21:14;99771.06;;;22.98;37.01
22653;BME280;11493;43.344;26.226;2023-05-03T12:23:44;99778.81;;;22.74;36.64
22653;BME280;11493;43.344;26.226;2023-05-03T12:26:12;99769.06;;;22.61;36.99
22653;BME280;11493;43.344;26.226;2023-05-03T12:28:40;99762.72;;;22.68;36.89
22653;BME280;11493;43.344;26.226;2023-05-03T12:31:08;99783.66;;;22.77;36.22
22653;BME280;11493;43.344;26.226;2023-05-03T12:33:36;99776.44;;;22.76;37.08
22653;BME280;11493;43.344;26.226;2023-05-03T12:36:04;99776.59;;;22.90;37.41
22653;BME280;11493;43.344;26.226;2023-05-03T12:38:35;99769.38;;;22.89;36.53
22653;BME280;11493;43.344;26.226;2023-05-03T12:41:03;99761.69;;;22.79;35.46
22653;BME280;11493;43.344;26.226;2023-05-03T12:43:34;99755.84;;;22.61;36.23
22653;BME280;11493;43.344;26.226;2023-05-03T12:46:02;99751.22;;;22.39;37.57
22653;BME280;11493;43.344;26.226;2023-05-03T12:48:32;99739.88;;;22.25;36.72
22653;BME280;11493;43.344;26.226;2023-05-03T12:50:59;99741.44;;;22.22;36.98
22653;BME280;11493;43.344;26.226;2023-05-03T12:53:46;99726.72;;;21.99;36.67
22653;BME280;11493;43.344;26.226;2023-05-03T12:56:13;99733.13;;;22.00;37.38
22653;BME280;11493;43.344;26.226;2023-05-03T12:58:41;99737.91;;;21.99;37.46
22653;BME280;11493;43.344;26.226;2023-05-03T13:01:28;99744.81;;;21.75;36.24
22653;BME280;11493;43.344;26.226;2023-05-03T13:03:58;99735.94;;;21.70;35.09
22653;BME280;11493;43.344;26.226;2023-05-03T13:06:45;99732.81;;;21.75;33.77
22653;BME280;11493;43.344;26.226;2023-05-03T13:09:13;99729.38;;;21.58;32.46
22653;BME280;11493;43.344;26.226;2023-05-03T13:11:45;99744.66;;;21.64;33.27
22653;BME280;11493;43.344;26.226;2023-05-03T13:14:15;99739.00;;;21.61;31.44
22653;BME280;11493;43.344;26.226;2023-05-03T13:16:42;99727.75;;;21.57;32.13
22653;BME280;11493;43.344;26.226;2023-05-03T13:19:11;99717.00;;;21.59;31.49
22653;BME280;11493;43.344;26.226;2023-05-03T13:21:38;99712.63;;;21.92;31.03
22653;BME280;11493;43.344;26.226;2023-05-03T13:24:06;99713.81;;;21.91;29.83
22653;BME280;11493;43.344;26.226;2023-05-03T13:26:33;99696.84;;;21.80;30.83
22653;BME280;11493;43.344;26.226;2023-05-03T13:29:01;99703.03;;;21.93;30.77
22653;BME280;11493;43.344;26.226;2023-05-03T13:31:28;99694.22;;;21.94;30.94